Spokane, WA (99201)

11:15 PM PST on December 02, 2016 (GMT -0800)
kendall yards | | Change Station

Elev 1850 ft 47.66 °N, 117.44 °W | Updated 33 seconds ago

Overcast
Overcast
36.5 °F
Feels Like 32 °F
N
5.8
Wind Variable Wind from SSW

Today
High -- | Low -- °F
--% Chance of Precip.
Yesterday
High -- | Low -- °F
Precip. -- in
Pressure 30.09 in
Visibility 10.0 miles
Clouds Overcast 1400 ft
Windchill 32 °F
Dew Point 35 °F
Humidity 94%
Rainfall 0.02 in
Snow Depth Not available.
7:19 AM 3:59 PM
Waxing Crescent, 13% visible
METAR KSFF 030653Z AUTO 23004KT 10SM OVC014 03/01 A3005 RMK AO2 RAB0555E0556B04E05UPB0556E04 SLP188 P0000 T00330011
Pressure 30.09 in
Visibility 10.0 miles
Clouds Overcast 1400 ft
Windchill 32 °F
Dew Point 35 °F
Humidity 94%
Rainfall 0.02 in
Snow Depth Not available.
7:19 AM 3:59 PM
Waxing Crescent, 13% visible
METAR KSFF 030653Z AUTO 23004KT 10SM OVC014 03/01 A3005 RMK AO2 RAB0555E0556B04E05UPB0556E04 SLP188 P0000 T00330011

10-Day Weather Forecast

Almanac

Astronomy

Dec. 02, 2016 Rise Set
Actual Time
Civil Twilight
Nautical Twilight
Astronomical Twilight
Moon
Length of Visible Light
Length of Day
Tomorrow will be .
, % of the Moon is Illuminated

Today's Extremes

State Highs State Lows

Community

WunderPhotos

Upload Photos

1,955,432 photos uploaded!

WunderBlog® & News

Nearby

Air Quality

  Air Quality AQ Index Pollutant
Not available.

Snow Depth

Station Depth Elevation

Earthquake Activity

City Distance Mag. Time & Date
Minimum magnitude displayed is 2.5.

Coastal Water Temperatures

Place Temperature

Stations

Nearby Weather Stations

Station Location Temp. Windchill Dew Point Humidity Wind Precip. Elev Updated Type
                   

Watches & Warnings

There are currently no watches in effect.